sensor_id;sensor_type;location;lat;lon;timestamp;temperature;humidity
42245;DHT22;27912;51.828;5.688;2023-10-31T00:00:38;10.00;99.90
42245;DHT22;27912;51.828;5.688;2023-10-31T00:03:03;10.00;99.90
42245;DHT22;27912;51.828;5.688;2023-10-31T00:05:29;10.00;99.90
42245;DHT22;27912;51.828;5.688;2023-10-31T00:07:54;9.90;99.90
42245;DHT22;27912;51.828;5.688;2023-10-31T00:10:20;9.90;99.90
42245;DHT22;27912;51.828;5.688;2023-10-31T00:12:46;9.80;99.90
42245;DHT22;27912;51.828;5.688;2023-10-31T00:15:11;9.80;99.90
42245;DHT22;27912;51.828;5.688;2023-10-31T00:17:37;9.70;99.90
42245;DHT22;27912;51.828;5.688;2023-10-31T00:20:02;9.70;99.90
42245;DHT22;27912;51.828;5.688;2023-10-31T00:22:28;9.60;99.90
42245;DHT22;27912;51.828;5.688;2023-10-31T00:24:54;9.60;99.90
42245;DHT22;27912;51.828;5.688;2023-10-31T00:27:19;9.60;99.90
42245;DHT22;27912;51.828;5.688;2023-10-31T00:29:45;9.60;99.90
42245;DHT22;27912;51.828;5.688;2023-10-31T00:32:10;9.50;99.90
42245;DHT22;27912;51.828;5.688;2023-10-31T00:34:36;9.60;99.90
42245;DHT22;27912;51.828;5.688;2023-10-31T00:37:01;9.50;99.90
42245;DHT22;27912;51.828;5.688;2023-10-31T00:39:27;9.60;99.90
42245;DHT22;27912;51.828;5.688;2023-10-31T00:41:52;9.60;99.90
42245;DHT22;27912;51.828;5.688;2023-10-31T00:44:18;9.70;99.90
42245;DHT22;27912;51.828;5.688;2023-10-31T00:46:44;9.70;99.90
42245;DHT22;27912;51.828;5.688;2023-10-31T00:49:10;9.70;99.90
42245;DHT22;27912;51.828;5.688;2023-10-31T00:51:35;9.80;99.90
42245;DHT22;27912;51.828;5.688;2023-10-31T00:54:01;9.80;99.90
42245;DHT22;27912;51.828;5.688;2023-10-31T00:56:26;9.80;99.90
42245;DHT22;27912;51.828;5.688;2023-10-31T00:58:52;9.80;99.90
42245;DHT22;27912;51.828;5.688;2023-10-31T01:01:17;9.90;99.90
42245;DHT22;27912;51.828;5.688;2023-10-31T01:03:43;9.90;99.90
42245;DHT22;27912;51.828;5.688;2023-10-31T01:06:08;9.90;99.90
42245;DHT22;27912;51.828;5.688;2023-10-31T01:08:34;9.90;99.90
42245;DHT22;27912;51.828;5.688;2023-10-31T01:11:00;9.90;99.90
42245;DHT22;27912;51.828;5.688;2023-10-31T01:13:25;9.90;99.90
42245;DHT22;27912;51.828;5.688;2023-10-31T01:15:51;10.00;99.90
42245;DHT22;27912;51.828;5.688;2023-10-31T01:18:16;9.90;99.90
42245;DHT22;27912;51.828;5.688;2023-10-31T01:20:42;9.90;99.90
42245;DHT22;27912;51.828;5.688;2023-10-31T01:23:08;9.90;99.90
42245;DHT22;27912;51.828;5.688;2023-10-31T01:25:33;9.90;99.90
42245;DHT22;27912;51.828;5.688;2023-10-31T01:27:58;10.00;99.90
42245;DHT22;27912;51.828;5.688;2023-10-31T01:30:24;10.00;99.90
42245;DHT22;27912;51.828;5.688;2023-10-31T01:32:49;10.00;99.90
42245;DHT22;27912;51.828;5.688;2023-10-31T01:35:15;10.00;99.90
42245;DHT22;27912;51.828;5.688;2023-10-31T01:37:41;10.00;99.90
42245;DHT22;27912;51.828;5.688;2023-10-31T01:40:07;10.00;99.90
42245;DHT22;27912;51.828;5.688;2023-10-31T01:42:33;10.00;99.90
42245;DHT22;27912;51.828;5.688;2023-10-31T01:44:58;10.00;99.90
42245;DHT22;27912;51.828;5.688;2023-10-31T01:47:24;10.10;99.90
42245;DHT22;27912;51.828;5.688;2023-10-31T01:49:50;10.00;99.90
42245;DHT22;27912;51.828;5.688;2023-10-31T01:52:16;10.10;99.90
42245;DHT22;27912;51.828;5.688;2023-10-31T01:54:43;10.10;99.90
42245;DHT22;27912;51.828;5.688;2023-10-31T01:57:09;10.10;99.90
42245;DHT22;27912;51.828;5.688;2023-10-31T01:59:34;10.10;99.90
42245;DHT22;27912;51.828;5.688;2023-10-31T02:02:00;10.10;99.90
42245;DHT22;27912;51.828;5.688;2023-10-31T02:04:26;10.10;99.90
42245;DHT22;27912;51.828;5.688;2023-10-31T02:06:52;10.20;99.90
42245;DHT22;27912;51.828;5.688;2023-10-31T02:09:17;10.20;99.90
42245;DHT22;27912;51.828;5.688;2023-10-31T02:11:43;10.20;99.90
42245;DHT22;27912;51.828;5.688;2023-10-31T02:14:08;10.20;99.90
42245;DHT22;27912;51.828;5.688;2023-10-31T02:16:34;10.30;99.90
42245;DHT22;27912;51.828;5.688;2023-10-31T02:18:59;10.20;99.90
42245;DHT22;27912;51.828;5.688;2023-10-31T02:21:25;10.30;99.90
42245;DHT22;27912;51.828;5.688;2023-10-31T02:24:03;10.30;99.90
42245;DHT22;27912;51.828;5.688;2023-10-31T02:26:33;10.30;99.90
42245;DHT22;27912;51.828;5.688;2023-10-31T02:29:00;10.30;99.90
42245;DHT22;27912;51.828;5.688;2023-10-31T02:31:26;10.30;99.90
42245;DHT22;27912;51.828;5.688;2023-10-31T02:33:52;10.30;99.90
42245;DHT22;27912;51.828;5.688;2023-10-31T02:36:18;10.30;99.90
42245;DHT22;27912;51.828;5.688;2023-10-31T02:38:44;10.30;99.90
42245;DHT22;27912;51.828;5.688;2023-10-31T02:41:10;10.30;99.90
42245;DHT22;27912;51.828;5.688;2023-10-31T02:43:37;10.30;99.90
42245;DHT22;27912;51.828;5.688;2023-10-31T02:46:03;10.30;99.90
42245;DHT22;27912;51.828;5.688;2023-10-31T02:48:28;10.30;99.90
42245;DHT22;27912;51.828;5.688;2023-10-31T02:50:54;10.30;99.90
42245;DHT22;27912;51.828;5.688;2023-10-31T02:53:20;10.30;99.90
42245;DHT22;27912;51.828;5.688;2023-10-31T02:55:45;10.30;99.90
42245;DHT22;27912;51.828;5.688;2023-10-31T02:58:11;10.30;99.90
42245;DHT22;27912;51.828;5.688;2023-10-31T03:00:37;10.40;99.90
42245;DHT22;27912;51.828;5.688;2023-10-31T03:03:03;10.40;99.90
42245;DHT22;27912;51.828;5.688;2023-10-31T03:05:28;10.40;99.90
42245;DHT22;27912;51.828;5.688;2023-10-31T03:07:54;10.40;99.90
42245;DHT22;27912;51.828;5.688;2023-10-31T03:10:21;10.40;99.90
42245;DHT22;27912;51.828;5.688;2023-10-31T03:12:47;10.40;99.90
42245;DHT22;27912;51.828;5.688;2023-10-31T03:15:13;10.40;99.90
42245;DHT22;27912;51.828;5.688;2023-10-31T03:17:38;10.50;99.90
42245;DHT22;27912;51.828;5.688;2023-10-31T03:20:05;10.50;99.90
42245;DHT22;27912;51.828;5.688;2023-10-31T03:22:30;10.50;99.90
42245;DHT22;27912;51.828;5.688;2023-10-31T03:24:56;10.50;99.90
42245;DHT22;27912;51.828;5.688;2023-10-31T03:27:21;10.50;99.90
42245;DHT22;27912;51.828;5.688;2023-10-31T03:29:48;10.50;99.90
42245;DHT22;27912;51.828;5.688;2023-10-31T03:32:14;10.50;99.90
42245;DHT22;27912;51.828;5.688;2023-10-31T03:34:40;10.40;99.90
42245;DHT22;27912;51.828;5.688;2023-10-31T03:37:06;10.40;99.90
42245;DHT22;27912;51.828;5.688;2023-10-31T03:39:31;10.40;99.90
42245;DHT22;27912;51.828;5.688;2023-10-31T03:41:57;10.50;99.90
42245;DHT22;27912;51.828;5.688;2023-10-31T03:44:23;10.50;99.90
42245;DHT22;27912;51.828;5.688;2023-10-31T03:46:48;10.40;99.90
42245;DHT22;27912;51.828;5.688;2023-10-31T03:49:14;10.40;99.90
42245;DHT22;27912;51.828;5.688;2023-10-31T03:51:39;10.50;99.90
42245;DHT22;27912;51.828;5.688;2023-10-31T03:54:05;10.50;99.90
42245;DHT22;27912;51.828;5.688;2023-10-31T03:56:39;10.50;99.90
42245;DHT22;27912;51.828;5.688;2023-10-31T03:59:05;10.50;99.90
42245;DHT22;27912;51.828;5.688;2023-10-31T04:01:31;10.50;99.90
42245;DHT22;27912;51.828;5.688;2023-10-31T04:03:56;10.50;99.90
42245;DHT22;27912;51.828;5.688;2023-10-31T04:06:22;10.50;99.90
42245;DHT22;27912;51.828;5.688;2023-10-31T04:08:47;10.50;99.90
42245;DHT22;27912;51.828;5.688;2023-10-31T04:11:13;10.50;99.90
42245;DHT22;27912;51.828;5.688;2023-10-31T04:13:38;10.50;99.90
42245;DHT22;27912;51.828;5.688;2023-10-31T04:16:04;10.50;99.90
42245;DHT22;27912;51.828;5.688;2023-10-31T04:18:30;10.50;99.90
42245;DHT22;27912;51.828;5.688;2023-10-31T04:20:55;10.40;99.90
42245;DHT22;27912;51.828;5.688;2023-10-31T04:23:21;10.40;99.90
42245;DHT22;27912;51.828;5.688;2023-10-31T04:25:46;10.50;99.90
42245;DHT22;27912;51.828;5.688;2023-10-31T04:28:12;10.40;99.90
42245;DHT22;27912;51.828;5.688;2023-10-31T04:30:40;10.40;99.90
42245;DHT22;27912;51.828;5.688;2023-10-31T04:33:05;10.40;99.90
42245;DHT22;27912;51.828;5.688;2023-10-31T04:35:31;10.40;99.90
42245;DHT22;27912;51.828;5.688;2023-10-31T04:37:56;10.40;99.90
42245;DHT22;27912;51.828;5.688;2023-10-31T04:40:22;10.30;99.90
42245;DHT22;27912;51.828;5.688;2023-10-31T04:42:47;10.30;99.90
42245;DHT22;27912;51.828;5.688;2023-10-31T04:45:13;10.30;99.90
42245;DHT22;27912;51.828;5.688;2023-10-31T04:47:39;10.30;99.90
42245;DHT22;27912;51.828;5.688;2023-10-31T04:50:05;10.20;99.90
42245;DHT22;27912;51.828;5.688;2023-10-31T04:52:31;10.30;99.90
42245;DHT22;27912;51.828;5.688;2023-10-31T04:54:56;10.20;99.90
42245;DHT22;27912;51.828;5.688;2023-10-31T04:57:22;10.20;99.90
42245;DHT22;27912;51.828;5.688;2023-10-31T04:59:47;10.10;99.90
42245;DHT22;27912;51.828;5.688;2023-10-31T05:02:13;10.10;99.90
42245;DHT22;27912;51.828;5.688;2023-10-31T05:04:39;10.10;99.90
42245;DHT22;27912;51.828;5.688;2023-10-31T05:07:07;10.10;99.90
42245;DHT22;27912;51.828;5.688;2023-10-31T05:09:33;10.10;99.90
42245;DHT22;27912;51.828;5.688;2023-10-31T05:11:59;10.10;99.90
42245;DHT22;27912;51.828;5.688;2023-10-31T05:14:25;10.10;99.90
42245;DHT22;27912;51.828;5.688;2023-10-31T05:16:51;10.10;99.90
42245;DHT22;27912;51.828;5.688;2023-10-31T05:19:16;10.20;99.90
42245;DHT22;27912;51.828;5.688;2023-10-31T05:21:42;10.10;99.90
42245;DHT22;27912;51.828;5.688;2023-10-31T05:24:08;10.20;99.90
42245;DHT22;27912;51.828;5.688;2023-10-31T05:26:34;10.10;99.90
42245;DHT22;27912;51.828;5.688;2023-10-31T05:28:59;10.10;99.90
42245;DHT22;27912;51.828;5.688;2023-10-31T05:31:26;10.10;99.90
42245;DHT22;27912;51.828;5.688;2023-10-31T05:33:52;10.10;99.90
42245;DHT22;27912;51.828;5.688;2023-10-31T05:36:24;10.10;99.90
42245;DHT22;27912;51.828;5.688;2023-10-31T05:38:50;10.10;99.90
42245;DHT22;27912;51.828;5.688;2023-10-31T05:41:16;10.10;99.90
42245;DHT22;27912;51.828;5.688;2023-10-31T05:43:41;10.10;99.90
42245;DHT22;27912;51.828;5.688;2023-10-31T05:46:07;10.10;99.90
42245;DHT22;27912;51.828;5.688;2023-10-31T05:48:39;10.10;99.90
42245;DHT22;27912;51.828;5.688;2023-10-31T05:51:11;10.20;99.90
42245;DHT22;27912;51.828;5.688;2023-10-31T05:53:39;10.10;99.90
42245;DHT22;27912;51.828;5.688;2023-10-31T05:56:05;10.10;99.90
42245;DHT22;27912;51.828;5.688;2023-10-31T05:58:32;10.10;99.90
42245;DHT22;27912;51.828;5.688;2023-10-31T06:00:58;10.00;99.90
42245;DHT22;27912;51.828;5.688;2023-10-31T06:03:23;10.10;99.90
42245;DHT22;27912;51.828;5.688;2023-10-31T06:05:49;10.10;99.90
42245;DHT22;27912;51.828;5.688;2023-10-31T06:08:14;10.10;99.90
42245;DHT22;27912;51.828;5.688;2023-10-31T06:10:40;10.10;99.90
42245;DHT22;27912;51.828;5.688;2023-10-31T06:13:05;10.10;99.90
42245;DHT22;27912;51.828;5.688;2023-10-31T06:15:31;10.10;99.90
42245;DHT22;27912;51.828;5.688;2023-10-31T06:17:57;10.10;99.90
42245;DHT22;27912;51.828;5.688;2023-10-31T06:20:23;10.10;99.90
42245;DHT22;27912;51.828;5.688;2023-10-31T06:22:49;10.10;99.90
42245;DHT22;27912;51.828;5.688;2023-10-31T06:25:14;10.10;99.90
42245;DHT22;27912;51.828;5.688;2023-10-31T06:27:40;10.10;99.90
42245;DHT22;27912;51.828;5.688;2023-10-31T06:30:06;10.10;99.90
42245;DHT22;27912;51.828;5.688;2023-10-31T06:32:32;10.10;99.90
42245;DHT22;27912;51.828;5.688;2023-10-31T06:34:57;10.10;99.90
42245;DHT22;27912;51.828;5.688;2023-10-31T06:37:23;10.20;99.90
42245;DHT22;27912;51.828;5.688;2023-10-31T06:39:48;10.20;99.90
42245;DHT22;27912;51.828;5.688;2023-10-31T06:42:14;10.20;99.90
42245;DHT22;27912;51.828;5.688;2023-10-31T06:44:39;10.20;99.90
42245;DHT22;27912;51.828;5.688;2023-10-31T06:47:05;10.20;99.90
42245;DHT22;27912;51.828;5.688;2023-10-31T06:49:30;10.30;99.90
42245;DHT22;27912;51.828;5.688;2023-10-31T06:51:56;10.30;99.90
42245;DHT22;27912;51.828;5.688;2023-10-31T06:54:21;10.20;99.90
42245;DHT22;27912;51.828;5.688;2023-10-31T06:56:47;10.20;99.90
42245;DHT22;27912;51.828;5.688;2023-10-31T06:59:13;10.30;99.90
42245;DHT22;27912;51.828;5.688;2023-10-31T07:01:38;10.30;99.90
42245;DHT22;27912;51.828;5.688;2023-10-31T07:04:04;10.30;99.90
42245;DHT22;27912;51.828;5.688;2023-10-31T07:06:30;10.30;99.90
42245;DHT22;27912;51.828;5.688;2023-10-31T07:08:55;10.30;99.90
42245;DHT22;27912;51.828;5.688;2023-10-31T07:11:22;10.30;99.90
42245;DHT22;27912;51.828;5.688;2023-10-31T07:13:48;10.30;99.90
42245;DHT22;27912;51.828;5.688;2023-10-31T07:16:13;10.30;99.90
42245;DHT22;27912;51.828;5.688;2023-10-31T07:18:39;10.20;99.90
42245;DHT22;27912;51.828;5.688;2023-10-31T07:21:05;10.20;99.90
42245;DHT22;27912;51.828;5.688;2023-10-31T07:23:31;10.20;99.90
42245;DHT22;27912;51.828;5.688;2023-10-31T07:25:56;10.20;99.90
42245;DHT22;27912;51.828;5.688;2023-10-31T07:28:22;10.20;99.90
42245;DHT22;27912;51.828;5.688;2023-10-31T07:30:48;10.20;99.90
42245;DHT22;27912;51.828;5.688;2023-10-31T07:33:13;10.30;99.90
42245;DHT22;27912;51.828;5.688;2023-10-31T07:35:39;10.30;99.90
42245;DHT22;27912;51.828;5.688;2023-10-31T07:38:05;10.30;99.90
42245;DHT22;27912;51.828;5.688;2023-10-31T07:40:30;10.40;99.90
42245;DHT22;27912;51.828;5.688;2023-10-31T07:42:56;10.40;99.90
42245;DHT22;27912;51.828;5.688;2023-10-31T07:45:21;10.40;99.90
42245;DHT22;27912;51.828;5.688;2023-10-31T07:47:47;10.40;99.90
42245;DHT22;27912;51.828;5.688;2023-10-31T07:50:12;10.40;99.90
42245;DHT22;27912;51.828;5.688;2023-10-31T07:52:38;10.40;99.90
42245;DHT22;27912;51.828;5.688;2023-10-31T07:55:04;10.40;99.90
42245;DHT22;27912;51.828;5.688;2023-10-31T07:57:30;10.40;99.90
42245;DHT22;27912;51.828;5.688;2023-10-31T07:59:55;10.40;99.90
42245;DHT22;27912;51.828;5.688;2023-10-31T08:02:21;10.50;99.90
42245;DHT22;27912;51.828;5.688;2023-10-31T08:04:46;10.60;99.90
42245;DHT22;27912;51.828;5.688;2023-10-31T08:07:12;10.70;99.90
42245;DHT22;27912;51.828;5.688;2023-10-31T08:09:37;10.70;99.90
42245;DHT22;27912;51.828;5.688;2023-10-31T08:12:03;10.80;99.90
42245;DHT22;27912;51.828;5.688;2023-10-31T08:14:29;10.80;99.90
42245;DHT22;27912;51.828;5.688;2023-10-31T08:16:54;10.80;99.90
42245;DHT22;27912;51.828;5.688;2023-10-31T08:19:20;10.90;99.90
42245;DHT22;27912;51.828;5.688;2023-10-31T08:21:45;10.90;99.90
42245;DHT22;27912;51.828;5.688;2023-10-31T08:24:11;10.90;99.90
42245;DHT22;27912;51.828;5.688;2023-10-31T08:26:38;10.90;99.90
42245;DHT22;27912;51.828;5.688;2023-10-31T08:29:04;11.00;99.90
42245;DHT22;27912;51.828;5.688;2023-10-31T08:31:29;11.10;99.90
42245;DHT22;27912;51.828;5.688;2023-10-31T08:33:55;11.10;99.90
42245;DHT22;27912;51.828;5.688;2023-10-31T08:36:20;11.10;99.90
42245;DHT22;27912;51.828;5.688;2023-10-31T08:38:46;11.10;99.90
42245;DHT22;27912;51.828;5.688;2023-10-31T08:41:12;11.10;99.90
42245;DHT22;27912;51.828;5.688;2023-10-31T08:43:37;11.20;99.90
42245;DHT22;27912;51.828;5.688;2023-10-31T08:46:03;11.30;99.90
42245;DHT22;27912;51.828;5.688;2023-10-31T08:48:29;11.30;99.90
42245;DHT22;27912;51.828;5.688;2023-10-31T08:50:54;11.40;99.90
42245;DHT22;27912;51.828;5.688;2023-10-31T08:53:20;11.50;99.90
42245;DHT22;27912;51.828;5.688;2023-10-31T08:55:45;11.60;99.90
42245;DHT22;27912;51.828;5.688;2023-10-31T08:58:12;11.70;99.90
42245;DHT22;27912;51.828;5.688;2023-10-31T09:00:41;11.80;99.90
42245;DHT22;27912;51.828;5.688;2023-10-31T09:03:07;12.00;99.90
42245;DHT22;27912;51.828;5.688;2023-10-31T09:05:33;12.00;99.90
42245;DHT22;27912;51.828;5.688;2023-10-31T09:07:59;12.10;99.90
42245;DHT22;27912;51.828;5.688;2023-10-31T09:10:24;12.10;99.90
42245;DHT22;27912;51.828;5.688;2023-10-31T09:12:50;12.20;99.90
42245;DHT22;27912;51.828;5.688;2023-10-31T09:15:15;12.20;99.90
42245;DHT22;27912;51.828;5.688;2023-10-31T09:17:41;12.10;99.90
42245;DHT22;27912;51.828;5.688;2023-10-31T09:20:07;12.10;99.90
42245;DHT22;27912;51.828;5.688;2023-10-31T09:22:33;12.10;99.90
42245;DHT22;27912;51.828;5.688;2023-10-31T09:24:59;12.20;99.90
42245;DHT22;27912;51.828;5.688;2023-10-31T09:27:24;12.20;99.90
42245;DHT22;27912;51.828;5.688;2023-10-31T09:29:50;12.20;99.90
42245;DHT22;27912;51.828;5.688;2023-10-31T09:32:17;12.20;99.90
42245;DHT22;27912;51.828;5.688;2023-10-31T09:34:43;12.30;99.90
42245;DHT22;27912;51.828;5.688;2023-10-31T09:37:09;12.20;99.90
42245;DHT22;27912;51.828;5.688;2023-10-31T09:39:34;12.20;99.90
42245;DHT22;27912;51.828;5.688;2023-10-31T09:42:00;12.20;99.90
42245;DHT22;27912;51.828;5.688;2023-10-31T09:44:25;12.20;99.90
42245;DHT22;27912;51.828;5.688;2023-10-31T09:46:54;12.20;99.90
42245;DHT22;27912;51.828;5.688;2023-10-31T09:49:20;12.20;99.90
42245;DHT22;27912;51.828;5.688;2023-10-31T09:51:46;12.20;99.90
42245;DHT22;27912;51.828;5.688;2023-10-31T09:54:12;12.20;99.90
42245;DHT22;27912;51.828;5.688;2023-10-31T09:56:41;12.20;99.90
42245;DHT22;27912;51.828;5.688;2023-10-31T09:59:07;12.20;99.90
42245;DHT22;27912;51.828;5.688;2023-10-31T10:01:32;12.30;99.90
42245;DHT22;27912;51.828;5.688;2023-10-31T10:03:58;12.30;99.90
42245;DHT22;27912;51.828;5.688;2023-10-31T10:06:24;12.40;99.90
42245;DHT22;27912;51.828;5.688;2023-10-31T10:08:50;12.50;99.90
42245;DHT22;27912;51.828;5.688;2023-10-31T10:11:16;12.50;99.90
42245;DHT22;27912;51.828;5.688;2023-10-31T10:13:42;12.50;99.90
42245;DHT22;27912;51.828;5.688;2023-10-31T10:16:08;12.70;99.90
42245;DHT22;27912;51.828;5.688;2023-10-31T10:18:35;12.70;99.90
42245;DHT22;27912;51.828;5.688;2023-10-31T10:21:04;12.70;99.90
42245;DHT22;27912;51.828;5.688;2023-10-31T10:23:31;12.70;99.90
42245;DHT22;27912;51.828;5.688;2023-10-31T10:25:59;12.70;99.90
42245;DHT22;27912;51.828;5.688;2023-10-31T10:28:25;12.70;99.90
42245;DHT22;27912;51.828;5.688;2023-10-31T10:30:52;12.70;99.90
42245;DHT22;27912;51.828;5.688;2023-10-31T10:33:20;12.70;99.90
42245;DHT22;27912;51.828;5.688;2023-10-31T10:35:46;12.70;99.90
42245;DHT22;27912;51.828;5.688;2023-10-31T10:38:15;12.70;99.90
42245;DHT22;27912;51.828;5.688;2023-10-31T10:40:42;12.70;99.90
42245;DHT22;27912;51.828;5.688;2023-10-31T10:45:38;12.60;99.90
42245;DHT22;27912;51.828;5.688;2023-10-31T10:48:13;12.70;99.90
42245;DHT22;27912;51.828;5.688;2023-10-31T10:50:42;12.80;99.90
42245;DHT22;27912;51.828;5.688;2023-10-31T10:53:25;12.90;99.90
42245;DHT22;27912;51.828;5.688;2023-10-31T10:56:09;13.10;99.90
42245;DHT22;27912;51.828;5.688;2023-10-31T10:58:51;13.10;99.90
42245;DHT22;27912;51.828;5.688;2023-10-31T11:01:19;13.20;99.90
42245;DHT22;27912;51.828;5.688;2023-10-31T11:03:45;13.20;99.90
42245;DHT22;27912;51.828;5.688;2023-10-31T11:06:12;13.10;99.90
42245;DHT22;27912;51.828;5.688;2023-10-31T11:08:39;13.00;99.90
42245;DHT22;27912;51.828;5.688;2023-10-31T11:11:08;13.00;99.90
42245;DHT22;27912;51.828;5.688;2023-10-31T11:13:34;13.00;99.90
42245;DHT22;27912;51.828;5.688;2023-10-31T11:16:07;13.00;99.90
42245;DHT22;27912;51.828;5.688;2023-10-31T11:18:35;13.00;99.90
42245;DHT22;27912;51.828;5.688;2023-10-31T11:21:00;13.00;99.90
42245;DHT22;27912;51.828;5.688;2023-10-31T11:23:27;13.00;99.90
42245;DHT22;27912;51.828;5.688;2023-10-31T11:25:53;13.00;99.90
42245;DHT22;27912;51.828;5.688;2023-10-31T11:28:19;13.00;99.90
42245;DHT22;27912;51.828;5.688;2023-10-31T11:30:51;13.00;99.90
42245;DHT22;27912;51.828;5.688;2023-10-31T11:33:24;13.20;99.90
42245;DHT22;27912;51.828;5.688;2023-10-31T11:35:51;13.20;99.90
42245;DHT22;27912;51.828;5.688;2023-10-31T11:38:16;13.20;99.90
42245;DHT22;27912;51.828;5.688;2023-10-31T11:40:58;13.30;99.90
42245;DHT22;27912;51.828;5.688;2023-10-31T11:43:24;13.40;99.90
42245;DHT22;27912;51.828;5.688;2023-10-31T11:45:50;13.30;99.90
42245;DHT22;27912;51.828;5.688;2023-10-31T11:48:17;13.30;99.90
42245;DHT22;27912;51.828;5.688;2023-10-31T11:50:43;13.20;99.90
42245;DHT22;27912;51.828;5.688;2023-10-31T11:53:13;13.10;99.90
42245;DHT22;27912;51.828;5.688;2023-10-31T11:55:44;13.10;99.90
42245;DHT22;27912;51.828;5.688;2023-10-31T12:00:39;13.00;99.90
42245;DHT22;27912;51.828;5.688;2023-10-31T12:03:04;12.90;99.90
42245;DHT22;27912;51.828;5.688;2023-10-31T12:05:30;12.90;99.90
42245;DHT22;27912;51.828;5.688;2023-10-31T12:07:56;12.90;99.90
42245;DHT22;27912;51.828;5.688;2023-10-31T12:10:27;12.90;99.90
42245;DHT22;27912;51.828;5.688;2023-10-31T12:12:55;13.00;99.90
42245;DHT22;27912;51.828;5.688;2023-10-31T12:15:21;13.00;99.90
42245;DHT22;27912;51.828;5.688;2023-10-31T12:17:48;13.10;99.90
42245;DHT22;27912;51.828;5.688;2023-10-31T12:20:14;13.10;99.90
42245;DHT22;27912;51.828;5.688;2023-10-31T12:22:39;13.30;99.90
42245;DHT22;27912;51.828;5.688;2023-10-31T12:25:09;13.50;99.90
42245;DHT22;27912;51.828;5.688;2023-10-31T12:27:42;13.60;99.90
42245;DHT22;27912;51.828;5.688;2023-10-31T12:30:13;13.60;99.90
42245;DHT22;27912;51.828;5.688;2023-10-31T12:32:40;13.50;99.90
42245;DHT22;27912;51.828;5.688;2023-10-31T12:35:08;13.50;99.90
42245;DHT22;27912;51.828;5.688;2023-10-31T12:37:35;13.40;99.90
42245;DHT22;27912;51.828;5.688;2023-10-31T12:40:01;13.40;99.90
42245;DHT22;27912;51.828;5.688;2023-10-31T12:42:31;13.50;99.90
42245;DHT22;27912;51.828;5.688;2023-10-31T12:44:59;13.70;99.90
42245;DHT22;27912;51.828;5.688;2023-10-31T12:47:24;13.70;99.90
42245;DHT22;27912;51.828;5.688;2023-10-31T12:50:12;13.70;99.90
42245;DHT22;27912;51.828;5.688;2023-10-31T12:52:58;13.60;99.90
42245;DHT22;27912;51.828;5.688;2023-10-31T12:55:29;13.60;99.90
42245;DHT22;27912;51.828;5.688;2023-10-31T12:57:56;13.50;99.90
42245;DHT22;27912;51.828;5.688;2023-10-31T13:00:23;13.50;99.90
42245;DHT22;27912;51.828;5.688;2023-10-31T13:03:07;13.50;99.90
42245;DHT22;27912;51.828;5.688;2023-10-31T13:05:33;13.50;99.90
42245;DHT22;27912;51.828;5.688;2023-10-31T13:07:59;13.60;99.90
42245;DHT22;27912;51.828;5.688;2023-10-31T13:10:27;13.50;99.90
42245;DHT22;27912;51.828;5.688;2023-10-31T13:12:53;13.50;99.90
42245;DHT22;27912;51.828;5.688;2023-10-31T13:15:20;13.50;99.90
42245;DHT22;27912;51.828;5.688;2023-10-31T13:17:47;13.40;99.90
42245;DHT22;27912;51.828;5.688;2023-10-31T13:20:14;13.40;99.90
42245;DHT22;27912;51.828;5.688;2023-10-31T13:22:41;13.40;99.90
42245;DHT22;27912;51.828;5.688;2023-10-31T13:25:09;13.50;99.90
42245;DHT22;27912;51.828;5.688;2023-10-31T13:27:38;13.50;99.90
42245;DHT22;27912;51.828;5.688;2023-10-31T13:30:05;13.50;99.90
42245;DHT22;27912;51.828;5.688;2023-10-31T13:32:31;13.50;99.90
42245;DHT22;27912;51.828;5.688;2023-10-31T13:34:56;13.60;99.90
42245;DHT22;27912;51.828;5.688;2023-10-31T13:37:22;13.60;99.90
42245;DHT22;27912;51.828;5.688;2023-10-31T13:39:48;13.60;99.90
42245;DHT22;27912;51.828;5.688;2023-10-31T13:42:13;13.80;99.90
42245;DHT22;27912;51.828;5.688;2023-10-31T13:44:42;13.90;99.90
42245;DHT22;27912;51.828;5.688;2023-10-31T13:47:08;13.90;99.90
42245;DHT22;27912;51.828;5.688;2023-10-31T13:49:33;13.90;99.90
42245;DHT22;27912;51.828;5.688;2023-10-31T13:51:59;13.70;99.90
42245;DHT22;27912;51.828;5.688;2023-10-31T13:54:24;13.60;99.90
42245;DHT22;27912;51.828;5.688;2023-10-31T13:56:50;13.50;99.90
42245;DHT22;27912;51.828;5.688;2023-10-31T13:59:16;13.40;99.90
42245;DHT22;27912;51.828;5.688;2023-10-31T14:01:43;13.30;99.90
42245;DHT22;27912;51.828;5.688;2023-10-31T14:04:11;13.30;99.90
42245;DHT22;27912;51.828;5.688;2023-10-31T14:06:39;13.30;99.90
42245;DHT22;27912;51.828;5.688;2023-10-31T14:09:04;13.30;99.90
42245;DHT22;27912;51.828;5.688;2023-10-31T14:11:32;13.30;99.90
42245;DHT22;27912;51.828;5.688;2023-10-31T14:13:58;13.20;99.90
42245;DHT22;27912;51.828;5.688;2023-10-31T14:16:32;13.20;99.90
42245;DHT22;27912;51.828;5.688;2023-10-31T14:18:57;13.20;99.90
42245;DHT22;27912;51.828;5.688;2023-10-31T14:21:23;13.20;99.90
42245;DHT22;27912;51.828;5.688;2023-10-31T14:23:51;13.20;99.90
42245;DHT22;27912;51.828;5.688;2023-10-31T14:26:20;13.20;99.90
42245;DHT22;27912;51.828;5.688;2023-10-31T14:28:46;13.20;99.90
42245;DHT22;27912;51.828;5.688;2023-10-31T14:31:13;13.10;99.90
42245;DHT22;27912;51.828;5.688;2023-10-31T14:33:38;13.10;99.90
42245;DHT22;27912;51.828;5.688;2023-10-31T14:36:04;13.10;99.90
42245;DHT22;27912;51.828;5.688;2023-10-31T14:38:30;13.20;99.90
42245;DHT22;27912;51.828;5.688;2023-10-31T14:40:55;13.20;99.90
42245;DHT22;27912;51.828;5.688;2023-10-31T14:43:21;13.20;99.90
42245;DHT22;27912;51.828;5.688;2023-10-31T14:45:46;13.20;99.90
42245;DHT22;27912;51.828;5.688;2023-10-31T14:48:12;13.20;99.90
42245;DHT22;27912;51.828;5.688;2023-10-31T14:50:37;13.20;99.90
42245;DHT22;27912;51.828;5.688;2023-10-31T14:53:04;13.20;99.90
42245;DHT22;27912;51.828;5.688;2023-10-31T14:55:30;13.20;99.90
42245;DHT22;27912;51.828;5.688;2023-10-31T14:57:56;13.10;99.90
42245;DHT22;27912;51.828;5.688;2023-10-31T15:00:21;13.10;99.90
42245;DHT22;27912;51.828;5.688;2023-10-31T15:02:47;13.10;99.90
42245;DHT22;27912;51.828;5.688;2023-10-31T15:05:12;13.00;99.90
42245;DHT22;27912;51.828;5.688;2023-10-31T15:07:38;12.90;99.90
42245;DHT22;27912;51.828;5.688;2023-10-31T15:10:06;12.90;99.90
42245;DHT22;27912;51.828;5.688;2023-10-31T15:12:31;12.70;99.90
42245;DHT22;27912;51.828;5.688;2023-10-31T15:14:57;12.60;99.90
42245;DHT22;27912;51.828;5.688;2023-10-31T15:17:23;12.50;99.90
42245;DHT22;27912;51.828;5.688;2023-10-31T15:19:48;12.40;99.90
42245;DHT22;27912;51.828;5.688;2023-10-31T15:22:14;12.30;99.90
42245;DHT22;27912;51.828;5.688;2023-10-31T15:24:39;12.30;99.90
42245;DHT22;27912;51.828;5.688;2023-10-31T15:27:05;12.20;99.90
42245;DHT22;27912;51.828;5.688;2023-10-31T15:29:31;12.20;99.90
42245;DHT22;27912;51.828;5.688;2023-10-31T15:31:57;12.20;99.90